createdAt,value
2022-09-23T00:02:07.210Z,100.00
2022-09-23T00:04:35.987Z,100.00
2022-09-23T00:07:05.195Z,100.00
2022-09-23T00:09:34.873Z,100.00
2022-09-23T00:12:08.977Z,100.00
2022-09-23T00:14:42.835Z,100.00
2022-09-23T00:17:14.814Z,100.00
2022-09-23T00:19:45.182Z,100.00
2022-09-23T00:22:15.212Z,100.00
2022-09-23T00:24:45.084Z,100.00
2022-09-23T00:27:14.730Z,100.00
2022-09-23T00:29:43.669Z,100.00
2022-09-23T00:32:14.130Z,100.00
2022-09-23T00:34:45.638Z,100.00
2022-09-23T00:37:14.219Z,100.00
2022-09-23T00:39:46.421Z,100.00
2022-09-23T00:42:19.383Z,100.00
2022-09-23T00:44:55.368Z,100.00
2022-09-23T00:47:34.113Z,100.00
2022-09-23T00:50:11.260Z,100.00
2022-09-23T00:52:40.980Z,100.00
2022-09-23T00:55:18.012Z,100.00
2022-09-23T00:57:49.055Z,100.00
2022-09-23T01:00:18.638Z,100.00
2022-09-23T01:02:53.258Z,100.00
2022-09-23T01:05:24.312Z,100.00
2022-09-23T01:07:55.420Z,100.00
2022-09-23T01:10:26.290Z,100.00
2022-09-23T01:13:21.352Z,100.00
2022-09-23T01:16:01.237Z,100.00
2022-09-23T01:18:44.743Z,100.00
2022-09-23T01:21:29.203Z,100.00
2022-09-23T01:24:54.783Z,100.00
2022-09-23T01:27:48.107Z,100.00
2022-09-23T01:30:38.201Z,100.00
2022-09-23T01:33:17.522Z,100.00
2022-09-23T01:36:02.886Z,100.00
2022-09-23T01:38:44.908Z,100.00
2022-09-23T01:41:56.024Z,100.00
2022-09-23T01:44:35.348Z,100.00
2022-09-23T01:47:14.351Z,100.00
2022-09-23T01:49:52.747Z,100.00
2022-09-23T01:52:32.875Z,100.00
2022-09-23T01:55:09.887Z,100.00
2022-09-23T01:57:46.131Z,100.00
2022-09-23T02:00:20.425Z,100.00
2022-09-23T02:02:59.806Z,100.00
2022-09-23T02:05:37.599Z,100.00
2022-09-23T02:08:13.378Z,100.00
2022-09-23T02:10:48.550Z,100.00
2022-09-23T02:13:25.420Z,100.00
2022-09-23T02:16:01.612Z,100.00
2022-09-23T02:18:42.488Z,100.00
2022-09-23T02:21:13.226Z,100.00
2022-09-23T02:23:52.233Z,100.00
2022-09-23T02:26:29.756Z,100.00
2022-09-23T02:29:11.420Z,100.00
2022-09-23T02:31:46.740Z,100.00
2022-09-23T02:34:28.133Z,100.00
2022-09-23T02:37:09.578Z,100.00
2022-09-23T02:39:54.294Z,100.00
2022-09-23T02:42:30.627Z,100.00
2022-09-23T02:44:59.990Z,100.00
2022-09-23T02:47:35.769Z,100.00
2022-09-23T02:50:08.221Z,100.00
2022-09-23T02:52:39.442Z,100.00
2022-09-23T02:55:13.206Z,100.00
2022-09-23T02:57:46.320Z,100.00
2022-09-23T03:00:17.062Z,100.00
2022-09-23T03:03:23.549Z,100.00
2022-09-23T03:05:59.433Z,100.00
2022-09-23T03:08:51.137Z,100.00
2022-09-23T03:11:22.428Z,100.00
2022-09-23T03:14:17.730Z,100.00
2022-09-23T03:16:59.990Z,100.00
2022-09-23T03:19:37.937Z,100.00
2022-09-23T03:22:14.581Z,100.00
2022-09-23T03:24:51.954Z,100.00
2022-09-23T03:27:30.175Z,100.00
2022-09-23T03:30:01.572Z,100.00
2022-09-23T03:32:32.801Z,100.00
2022-09-23T03:35:04.514Z,100.00
2022-09-23T03:37:41.360Z,100.00
2022-09-23T03:40:18.202Z,100.00
2022-09-23T03:42:49.167Z,100.00
2022-09-23T03:45:26.615Z,100.00
2022-09-23T03:47:57.289Z,100.00
2022-09-23T03:50:26.987Z,100.00
2022-09-23T03:52:57.812Z,100.00
2022-09-23T03:55:26.454Z,100.00
2022-09-23T03:57:56.648Z,100.00
2022-09-23T04:00:25.264Z,100.00
2022-09-23T04:02:54.102Z,100.00
2022-09-23T04:05:23.308Z,100.00
2022-09-23T04:07:52.761Z,100.00
2022-09-23T04:10:23.851Z,100.00
2022-09-23T04:12:53.134Z,100.00
2022-09-23T04:15:22.035Z,100.00
2022-09-23T04:17:51.038Z,100.00
2022-09-23T04:20:20.685Z,100.00
2022-09-23T04:22:49.672Z,100.00
2022-09-23T04:25:18.490Z,100.00
2022-09-23T04:27:49.312Z,100.00
2022-09-23T04:30:19.685Z,100.00
2022-09-23T04:32:49.145Z,100.00
2022-09-23T04:35:17.906Z,100.00
2022-09-23T04:37:50.712Z,100.00
2022-09-23T04:40:20.033Z,100.00
2022-09-23T04:42:50.465Z,100.00
2022-09-23T04:45:19.077Z,100.00
2022-09-23T04:47:48.052Z,100.00
2022-09-23T04:50:16.970Z,100.00
2022-09-23T04:52:45.904Z,100.00
2022-09-23T04:55:15.144Z,100.00
2022-09-23T04:57:45.133Z,100.00
2022-09-23T05:00:18.180Z,100.00
2022-09-23T05:02:48.347Z,100.00
2022-09-23T05:05:20.314Z,100.00
2022-09-23T05:07:50.423Z,100.00
2022-09-23T05:10:19.657Z,100.00
2022-09-23T05:12:48.696Z,100.00
2022-09-23T05:15:18.993Z,100.00
2022-09-23T05:17:48.828Z,100.00
2022-09-23T05:20:19.302Z,100.00
2022-09-23T05:22:48.125Z,100.00
2022-09-23T05:25:17.022Z,100.00
2022-09-23T05:27:46.464Z,100.00
2022-09-23T05:30:15.483Z,100.00
2022-09-23T05:32:47.127Z,100.00
2022-09-23T05:35:16.565Z,100.00
2022-09-23T05:37:45.424Z,100.00
2022-09-23T05:40:14.336Z,100.00
2022-09-23T05:42:42.979Z,100.00
2022-09-23T05:45:12.230Z,100.00
2022-09-23T05:47:41.758Z,100.00
2022-09-23T05:50:12.730Z,100.00
2022-09-23T05:52:42.057Z,100.00
2022-09-23T05:55:11.864Z,100.00
2022-09-23T05:57:40.933Z,100.00
2022-09-23T06:00:13.972Z,100.00
2022-09-23T06:02:43.318Z,100.00
2022-09-23T06:05:14.339Z,100.00
2022-09-23T06:07:43.217Z,100.00
2022-09-23T06:10:12.212Z,100.00
2022-09-23T06:12:42.608Z,100.00
2022-09-23T06:15:12.610Z,100.00
2022-09-23T06:17:42.363Z,100.00
2022-09-23T06:20:13.517Z,100.00
2022-09-23T06:22:42.720Z,100.00
2022-09-23T06:25:12.371Z,100.00
2022-09-23T06:27:41.438Z,100.00
2022-09-23T06:30:14.411Z,100.00
2022-09-23T06:32:43.235Z,100.00
2022-09-23T06:35:25.228Z,100.00
2022-09-23T06:37:56.679Z,100.00
2022-09-23T06:40:26.660Z,100.00
2022-09-23T06:43:00.312Z,100.00
2022-09-23T06:45:30.295Z,100.00
2022-09-23T06:47:59.980Z,100.00
2022-09-23T06:50:31.138Z,100.00
2022-09-23T06:53:00.167Z,100.00
2022-09-23T06:55:29.252Z,100.00
2022-09-23T06:58:00.123Z,100.00
2022-09-23T07:00:29.438Z,100.00
2022-09-23T07:02:58.784Z,100.00
2022-09-23T07:05:28.004Z,100.00
2022-09-23T07:07:58.361Z,100.00
2022-09-23T07:10:29.705Z,100.00
2022-09-23T07:13:02.841Z,100.00
2022-09-23T07:15:32.915Z,100.00
2022-09-23T07:18:01.536Z,100.00
2022-09-23T07:20:34.523Z,100.00
2022-09-23T07:23:05.608Z,100.00
2022-09-23T07:25:34.966Z,100.00
2022-09-23T07:28:03.969Z,100.00
2022-09-23T07:30:33.801Z,100.00
2022-09-23T07:33:06.204Z,100.00
2022-09-23T07:35:43.558Z,100.00
2022-09-23T07:38:14.179Z,100.00
2022-09-23T07:40:43.145Z,100.00
2022-09-23T07:43:12.175Z,100.00
2022-09-23T07:45:43.708Z,100.00
2022-09-23T07:48:13.899Z,100.00
2022-09-23T07:50:43.442Z,100.00
2022-09-23T07:53:14.724Z,100.00
2022-09-23T07:55:43.242Z,100.00
2022-09-23T07:58:11.852Z,100.00
2022-09-23T08:00:40.870Z,100.00
2022-09-23T08:03:10.664Z,100.00
2022-09-23T08:05:39.869Z,100.00
2022-09-23T08:08:08.760Z,100.00
2022-09-23T08:10:39.783Z,100.00
2022-09-23T08:13:09.717Z,100.00
2022-09-23T08:15:39.155Z,100.00
2022-09-23T08:18:10.314Z,100.00
2022-09-23T08:20:48.308Z,100.00
2022-09-23T08:23:19.290Z,100.00
2022-09-23T08:26:00.532Z,100.00
2022-09-23T08:28:30.111Z,100.00
2022-09-23T08:31:02.005Z,100.00
2022-09-23T08:33:42.643Z,100.00
2022-09-23T08:36:18.353Z,100.00
2022-09-23T08:38:46.981Z,100.00
2022-09-23T08:41:27.363Z,100.00
2022-09-23T08:44:00.855Z,100.00
2022-09-23T08:46:36.040Z,100.00
2022-09-23T08:49:06.799Z,100.00
2022-09-23T08:51:46.200Z,100.00
2022-09-23T08:54:19.443Z,100.00
2022-09-23T08:56:53.449Z,100.00
2022-09-23T08:59:32.783Z,100.00
2022-09-23T09:02:07.426Z,100.00
2022-09-23T09:04:44.946Z,100.00
2022-09-23T09:07:37.426Z,100.00
2022-09-23T09:10:17.543Z,100.00
2022-09-23T09:12:50.928Z,100.00
2022-09-23T09:15:25.117Z,100.00
2022-09-23T09:18:06.860Z,100.00
2022-09-23T09:20:42.825Z,100.00
2022-09-23T09:23:24.480Z,100.00
2022-09-23T09:25:56.389Z,100.00
2022-09-23T09:28:31.175Z,100.00
2022-09-23T09:31:04.885Z,100.00
2022-09-23T09:33:43.077Z,100.00
2022-09-23T09:36:33.361Z,100.00
2022-09-23T09:39:02.773Z,100.00
2022-09-23T09:41:32.638Z,100.00
2022-09-23T09:44:17.609Z,100.00
2022-09-23T09:47:02.666Z,100.00
2022-09-23T09:49:43.268Z,100.00
2022-09-23T09:52:24.851Z,100.00
2022-09-23T09:54:56.941Z,100.00
2022-09-23T09:57:36.062Z,100.00
2022-09-23T10:00:37.130Z,100.00
2022-09-23T10:03:27.498Z,100.00
2022-09-23T10:05:57.813Z,100.00
2022-09-23T10:08:33.275Z,100.00
2022-09-23T10:11:05.878Z,100.00
2022-09-23T10:13:34.532Z,100.00
2022-09-23T10:16:07.154Z,100.00
2022-09-23T10:18:39.703Z,100.00
2022-09-23T10:21:12.257Z,100.00
2022-09-23T10:23:45.314Z,100.00
2022-09-23T10:26:17.522Z,100.00
2022-09-23T10:28:53.332Z,100.00
2022-09-23T10:31:28.739Z,100.00
2022-09-23T10:34:00.493Z,100.00
2022-09-23T10:36:32.851Z,100.00
2022-09-23T10:39:18.295Z,100.00
2022-09-23T10:42:21.818Z,100.00
2022-09-23T10:45:27.889Z,100.00
2022-09-23T10:48:10.475Z,100.00
2022-09-23T10:50:47.744Z,100.00
2022-09-23T10:53:31.813Z,100.00
2022-09-23T10:56:21.279Z,100.00
2022-09-23T10:59:34.437Z,100.00
2022-09-23T11:02:24.021Z,100.00
2022-09-23T11:05:42.925Z,100.00
2022-09-23T11:08:38.192Z,100.00
2022-09-23T11:11:26.121Z,100.00
2022-09-23T11:14:53.492Z,100.00
2022-09-23T11:17:49.401Z,100.00
2022-09-23T11:20:40.404Z,100.00
2022-09-23T11:23:53.732Z,100.00
2022-09-23T11:26:42.773Z,100.00
2022-09-23T11:29:52.291Z,100.00
2022-09-23T11:33:15.574Z,96.02
2022-09-23T11:35:51.810Z,97.41
2022-09-23T11:38:27.633Z,93.74
2022-09-23T11:41:03.640Z,95.18
2022-09-23T11:43:40.511Z,96.66
2022-09-23T11:46:22.095Z,98.48
2022-09-23T11:49:00.634Z,97.99
2022-09-23T11:51:37.276Z,95.85
2022-09-23T11:54:21.251Z,95.46
2022-09-23T11:56:58.862Z,96.79
2022-09-23T11:59:41.246Z,96.64
2022-09-23T12:02:30.286Z,95.90
2022-09-23T12:05:10.661Z,90.30
2022-09-23T12:07:56.723Z,91.26
2022-09-23T12:10:40.942Z,91.75
2022-09-23T12:13:19.867Z,91.39
2022-09-23T12:16:26.891Z,89.27
2022-09-23T12:19:11.157Z,87.61
2022-09-23T12:22:05.670Z,86.45
2022-09-23T12:24:52.195Z,87.60
2022-09-23T12:27:32.655Z,88.32
2022-09-23T12:30:14.708Z,88.46
2022-09-23T12:32:44.910Z,88.19
2022-09-23T12:35:25.488Z,88.27
2022-09-23T12:37:54.681Z,87.46
2022-09-23T12:40:32.855Z,85.72
2022-09-23T12:43:03.994Z,86.16
2022-09-23T12:45:41.549Z,84.50
2022-09-23T12:49:00.696Z,86.21
2022-09-23T12:51:30.730Z,85.79
2022-09-23T12:54:25.125Z,86.52
2022-09-23T12:57:11.749Z,87.39
2022-09-23T13:00:22.747Z,86.37
2022-09-23T13:03:18.572Z,85.41
2022-09-23T13:06:09.957Z,83.70
2022-09-23T13:08:42.162Z,83.73
2022-09-23T13:11:24.038Z,84.53
2022-09-23T13:13:54.609Z,82.30
2022-09-23T13:16:31.708Z,80.47
2022-09-23T13:19:02.614Z,79.50
2022-09-23T13:22:14.664Z,82.81
2022-09-23T13:24:53.567Z,84.33
2022-09-23T13:27:28.785Z,79.81
2022-09-23T13:30:05.853Z,78.34
2022-09-23T13:32:44.057Z,78.95
2022-09-23T13:35:26.508Z,77.13
2022-09-23T13:37:57.076Z,78.01
2022-09-23T13:40:29.207Z,76.14
2022-09-23T13:43:01.733Z,76.13
2022-09-23T13:45:32.479Z,75.60
2022-09-23T13:48:12.488Z,75.29
2022-09-23T13:50:46.557Z,77.83
2022-09-23T13:53:23.956Z,78.67
2022-09-23T13:56:07.216Z,67.87
2022-09-23T13:58:37.577Z,62.46
2022-09-23T14:01:10.440Z,62.44
2022-09-23T14:03:41.402Z,63.68
2022-09-23T14:06:15.393Z,62.47
2022-09-23T14:08:48.762Z,63.23
2022-09-23T14:11:19.453Z,65.19
2022-09-23T14:13:55.028Z,64.55
2022-09-23T14:16:28.417Z,64.67
2022-09-23T14:19:01.769Z,65.80
2022-09-23T14:21:34.905Z,67.26
2022-09-23T14:24:19.813Z,71.02
2022-09-23T14:26:53.147Z,73.57
2022-09-23T14:29:26.709Z,75.75
2022-09-23T14:32:00.287Z,76.55
2022-09-23T14:34:51.265Z,79.86
2022-09-23T14:37:51.053Z,80.89
2022-09-23T14:40:22.630Z,79.88
2022-09-23T14:43:00.064Z,79.61
2022-09-23T14:45:34.971Z,79.71
2022-09-23T14:48:09.735Z,74.43
2022-09-23T14:50:47.236Z,74.65
2022-09-23T14:53:47.099Z,74.04
2022-09-23T14:56:21.366Z,71.84
2022-09-23T14:58:54.538Z,70.31
2022-09-23T15:01:37.988Z,74.13
2022-09-23T15:04:18.070Z,73.33
2022-09-23T15:06:58.364Z,69.37
2022-09-23T15:09:31.749Z,69.61
2022-09-23T15:12:05.701Z,70.16
2022-09-23T15:14:41.472Z,68.34
2022-09-23T15:17:32.573Z,66.35
2022-09-23T15:20:05.579Z,66.91
2022-09-23T15:22:45.363Z,68.57
2022-09-23T15:25:20.997Z,69.43
2022-09-23T15:28:17.772Z,70.05
2022-09-23T15:30:46.970Z,66.14
2022-09-23T15:33:16.284Z,64.18
2022-09-23T15:35:49.574Z,64.92
2022-09-23T15:38:19.459Z,67.00
2022-09-23T15:40:49.505Z,68.29
2022-09-23T15:43:21.877Z,67.20
2022-09-23T15:45:53.583Z,68.32
2022-09-23T15:48:26.257Z,70.50
2022-09-23T15:50:56.257Z,71.96
2022-09-23T15:53:29.647Z,73.81
2022-09-23T15:55:58.729Z,74.96
2022-09-23T15:58:27.888Z,76.81
2022-09-23T16:00:58.023Z,78.25
2022-09-23T16:03:29.395Z,79.93
2022-09-23T16:06:01.036Z,78.54
2022-09-23T16:08:33.066Z,79.85
2022-09-23T16:11:02.240Z,79.99
2022-09-23T16:13:31.182Z,80.17
2022-09-23T16:15:59.854Z,80.51
2022-09-23T16:18:28.804Z,77.35
2022-09-23T16:20:59.790Z,79.24
2022-09-23T16:23:38.917Z,80.84
2022-09-23T16:26:15.312Z,82.54
2022-09-23T16:28:44.945Z,84.66
2022-09-23T16:31:16.211Z,87.11
2022-09-23T16:33:45.399Z,87.67
2022-09-23T16:36:25.427Z,87.66
2022-09-23T16:38:57.448Z,87.71
2022-09-23T16:41:29.177Z,88.97
2022-09-23T16:43:57.967Z,89.54
2022-09-23T16:46:27.161Z,90.49
2022-09-23T16:48:57.772Z,91.22
2022-09-23T16:51:38.253Z,92.23
2022-09-23T16:54:12.013Z,93.23
2022-09-23T16:56:45.177Z,93.85
2022-09-23T16:59:16.487Z,94.88
2022-09-23T17:02:03.605Z,95.14
2022-09-23T17:04:32.193Z,95.17
2022-09-23T17:07:00.801Z,94.97
2022-09-23T17:09:31.310Z,96.42
2022-09-23T17:12:12.442Z,96.17
2022-09-23T17:14:41.005Z,95.99
2022-09-23T17:17:09.498Z,96.51
2022-09-23T17:19:41.969Z,97.47
2022-09-23T17:22:10.531Z,98.12
2022-09-23T17:24:40.444Z,98.22
2022-09-23T17:27:08.957Z,100.00
2022-09-23T17:29:38.335Z,100.00
2022-09-23T17:32:09.570Z,100.00
2022-09-23T17:34:38.119Z,100.00
2022-09-23T17:37:06.641Z,100.00
2022-09-23T17:39:35.766Z,100.00
2022-09-23T17:42:06.113Z,100.00
2022-09-23T17:44:35.402Z,100.00
2022-09-23T17:47:05.591Z,100.00
2022-09-23T17:49:35.357Z,100.00
2022-09-23T17:52:05.746Z,100.00
2022-09-23T17:54:35.778Z,100.00
2022-09-23T17:57:06.071Z,100.00
2022-09-23T17:59:34.663Z,100.00
2022-09-23T18:02:03.087Z,100.00
2022-09-23T18:04:31.619Z,100.00
2022-09-23T18:07:00.399Z,100.00
2022-09-23T18:09:28.954Z,100.00
2022-09-23T18:11:57.882Z,100.00
2022-09-23T18:14:29.482Z,100.00
2022-09-23T18:16:58.005Z,100.00
2022-09-23T18:19:26.629Z,100.00
2022-09-23T18:21:57.385Z,100.00
2022-09-23T18:24:34.081Z,100.00
2022-09-23T18:27:03.304Z,100.00
2022-09-23T18:29:34.907Z,100.00
2022-09-23T18:32:04.341Z,100.00
2022-09-23T18:34:32.804Z,100.00
2022-09-23T18:37:02.126Z,100.00
2022-09-23T18:39:30.665Z,100.00
2022-09-23T18:42:02.127Z,100.00
2022-09-23T18:44:32.801Z,100.00
2022-09-23T18:47:01.294Z,100.00
2022-09-23T18:49:47.318Z,100.00
2022-09-23T18:52:15.926Z,100.00
2022-09-23T18:54:44.977Z,100.00
2022-09-23T18:57:14.926Z,100.00
2022-09-23T18:59:47.406Z,100.00
2022-09-23T19:02:17.081Z,100.00
2022-09-23T19:04:45.655Z,100.00
2022-09-23T19:07:16.001Z,100.00
2022-09-23T19:09:44.496Z,100.00
2022-09-23T19:12:13.097Z,100.00
2022-09-23T19:14:44.366Z,100.00
2022-09-23T19:17:15.180Z,100.00
2022-09-23T19:19:44.195Z,100.00
2022-09-23T19:22:13.777Z,100.00
2022-09-23T19:24:42.311Z,100.00
2022-09-23T19:27:10.869Z,100.00
2022-09-23T19:29:40.630Z,100.00
2022-09-23T19:32:11.435Z,100.00
2022-09-23T19:34:41.704Z,100.00
2022-09-23T19:37:10.471Z,100.00
2022-09-23T19:39:41.322Z,100.00
2022-09-23T19:42:10.036Z,100.00
2022-09-23T19:44:39.295Z,100.00
2022-09-23T19:47:15.399Z,100.00
2022-09-23T19:49:45.535Z,100.00
2022-09-23T19:52:14.018Z,100.00
2022-09-23T19:54:42.530Z,100.00
2022-09-23T19:57:11.125Z,100.00
2022-09-23T19:59:40.178Z,100.00
2022-09-23T20:02:12.345Z,100.00
2022-09-23T20:04:40.976Z,100.00
2022-09-23T20:07:11.576Z,100.00
2022-09-23T20:09:40.032Z,100.00
2022-09-23T20:12:08.410Z,100.00
2022-09-23T20:14:37.018Z,100.00
2022-09-23T20:17:05.536Z,100.00
2022-09-23T20:19:34.036Z,100.00
2022-09-23T20:22:20.462Z,100.00
2022-09-23T20:24:50.393Z,100.00
2022-09-23T20:27:18.363Z,100.00
2022-09-23T20:29:48.435Z,100.00
2022-09-23T20:32:17.100Z,100.00
2022-09-23T20:34:48.680Z,100.00
2022-09-23T20:37:20.477Z,100.00
2022-09-23T20:39:51.521Z,100.00
2022-09-23T20:42:22.438Z,100.00
2022-09-23T20:44:51.501Z,100.00
2022-09-23T20:47:21.086Z,100.00
2022-09-23T20:49:49.768Z,100.00
2022-09-23T20:52:20.457Z,100.00
2022-09-23T20:54:51.826Z,100.00
2022-09-23T20:57:22.220Z,100.00
2022-09-23T20:59:50.771Z,100.00
2022-09-23T21:02:19.521Z,100.00
2022-09-23T21:04:48.283Z,100.00
2022-09-23T21:07:17.555Z,100.00
2022-09-23T21:09:46.558Z,100.00
2022-09-23T21:12:16.666Z,100.00
2022-09-23T21:14:45.592Z,100.00
2022-09-23T21:17:14.375Z,100.00
2022-09-23T21:19:42.924Z,100.00
2022-09-23T21:22:12.500Z,100.00
2022-09-23T21:25:16.016Z,100.00
2022-09-23T21:27:30.921Z,100.00
2022-09-23T21:29:59.482Z,100.00
2022-09-23T21:32:28.043Z,100.00
2022-09-23T21:34:56.556Z,100.00
2022-09-23T21:37:25.552Z,100.00
2022-09-23T21:40:08.137Z,100.00
2022-09-23T21:42:38.334Z,100.00
2022-09-23T21:45:09.257Z,100.00
2022-09-23T21:47:38.671Z,100.00
2022-09-23T21:50:09.396Z,100.00
2022-09-23T21:52:39.117Z,100.00
2022-09-23T21:55:08.745Z,100.00
2022-09-23T21:57:38.745Z,100.00
2022-09-23T22:00:12.640Z,100.00
2022-09-23T22:02:41.184Z,100.00
2022-09-23T22:05:10.432Z,100.00
2022-09-23T22:07:39.225Z,100.00
2022-09-23T22:10:08.976Z,100.00
2022-09-23T22:12:38.835Z,100.00
2022-09-23T22:15:09.923Z,100.00
2022-09-23T22:17:40.138Z,100.00
2022-09-23T22:20:10.939Z,100.00
2022-09-23T22:22:39.411Z,100.00
2022-09-23T22:25:12.616Z,100.00
2022-09-23T22:28:05.478Z,100.00
2022-09-23T22:30:51.679Z,100.00
2022-09-23T22:33:21.226Z,100.00
2022-09-23T22:35:49.800Z,100.00
2022-09-23T22:38:19.296Z,100.00
2022-09-23T22:40:48.333Z,100.00
2022-09-23T22:43:20.240Z,100.00
2022-09-23T22:45:51.707Z,100.00
2022-09-23T22:48:21.665Z,100.00
2022-09-23T22:50:50.174Z,100.00
2022-09-23T22:53:18.853Z,100.00
2022-09-23T22:55:59.274Z,100.00
2022-09-23T22:58:32.647Z,100.00
2022-09-23T23:01:02.502Z,100.00
2022-09-23T23:03:34.523Z,100.00
2022-09-23T23:06:05.063Z,100.00
2022-09-23T23:08:33.687Z,100.00
2022-09-23T23:11:10.894Z,100.00
2022-09-23T23:13:42.528Z,100.00
2022-09-23T23:16:13.839Z,100.00
2022-09-23T23:18:45.516Z,100.00
2022-09-23T23:21:16.544Z,100.00
2022-09-23T23:23:48.585Z,100.00
2022-09-23T23:26:20.739Z,100.00
2022-09-23T23:28:52.411Z,100.00
2022-09-23T23:31:23.492Z,100.00
2022-09-23T23:33:53.448Z,100.00
2022-09-23T23:36:24.152Z,100.00
2022-09-23T23:38:53.239Z,100.00
2022-09-23T23:41:23.981Z,100.00
2022-09-23T23:44:00.235Z,100.00
2022-09-23T23:46:31.803Z,100.00
2022-09-23T23:49:01.360Z,100.00
2022-09-23T23:51:30.203Z,100.00
2022-09-23T23:54:00.469Z,100.00
2022-09-23T23:56:31.843Z,100.00
2022-09-23T23:59:03.856Z,100.00
